WJA11 EGPH-CYYZ
Flight info
| Callsign | WJA11 |
|---|---|
| Flight time | N/A |
| Altitude | 34000 |
| Route | RWY 06 DCT BRUCE DCT GOMUP DCT 59N020W 59N030W 58N040W 56N050W DCT JANJO DCT ALKOB DCT YBC DCT POLTY IMEBA9 |
| Aircraft | B738/M-VGDW/C |
Departure
| Time | 2026-04-26 18:37 |
|---|---|
| Airport | Edinburgh Airport (EGPH) |
Arrival
| Time | N/A |
|---|---|
| Airport | Toronto Pearson International Airport (CYYZ) |
| Time | Latitude | Longitude | Altitude | Speed | Heading |
|---|---|---|---|---|---|
| 2026-04-26 18:15 | 55.94752 | -3.36621 | 106 ft | 0 kts | 90° |
| 2026-04-26 18:30 | 55.94752 | -3.36626 | 106 ft | 0 kts | 89° |
| 2026-04-26 18:30 | 55.94752 | -3.36640 | 106 ft | 4 kts | 81° |
| 2026-04-26 18:30 | 55.94728 | -3.36721 | 106 ft | 9 kts | 39° |
| 2026-04-26 18:30 | 55.94686 | -3.36745 | 107 ft | 1 kts | 8° |
| 2026-04-26 18:31 | 55.94692 | -3.36744 | 107 ft | 1 kts | 8° |
| 2026-04-26 18:31 | 55.94711 | -3.36740 | 107 ft | 4 kts | 4° |
| 2026-04-26 18:31 | 55.94740 | -3.36741 | 106 ft | 4 kts | 350° |
| 2026-04-26 18:31 | 55.94778 | -3.36769 | 105 ft | 7 kts | 344° |
| 2026-04-26 18:32 | 55.94828 | -3.36781 | 104 ft | 7 kts | 358° |
| 2026-04-26 18:32 | 55.94879 | -3.36791 | 103 ft | 8 kts | 342° |
| 2026-04-26 18:32 | 55.94922 | -3.36880 | 102 ft | 10 kts | 270° |
| 2026-04-26 18:32 | 55.94894 | -3.36989 | 102 ft | 9 kts | 240° |
| 2026-04-26 18:33 | 55.94864 | -3.37081 | 103 ft | 8 kts | 238° |
| 2026-04-26 18:33 | 55.94825 | -3.37194 | 104 ft | 12 kts | 239° |
| 2026-04-26 18:33 | 55.94770 | -3.37356 | 104 ft | 16 kts | 239° |
| 2026-04-26 18:33 | 55.94710 | -3.37535 | 104 ft | 16 kts | 239° |
| 2026-04-26 18:34 | 55.94656 | -3.37693 | 105 ft | 13 kts | 239° |
| 2026-04-26 18:34 | 55.94607 | -3.37835 | 107 ft | 13 kts | 238° |
| 2026-04-26 18:34 | 55.94556 | -3.37988 | 109 ft | 19 kts | 241° |
| 2026-04-26 18:34 | 55.94472 | -3.38236 | 112 ft | 23 kts | 239° |
| 2026-04-26 18:35 | 55.94391 | -3.38470 | 113 ft | 21 kts | 239° |
| 2026-04-26 18:35 | 55.94320 | -3.38680 | 115 ft | 18 kts | 237° |
| 2026-04-26 18:35 | 55.94294 | -3.38860 | 117 ft | 13 kts | 299° |
| 2026-04-26 18:35 | 55.94368 | -3.38960 | 116 ft | 14 kts | 327° |
| 2026-04-26 18:36 | 55.94429 | -3.38930 | 115 ft | 0 kts | 55° |
| 2026-04-26 18:36 | 55.94556 | -3.38557 | 111 ft | 73 kts | 59° |
| 2026-04-26 18:37 | 55.94943 | -3.37413 | 101 ft | 139 kts | 58° |
| 2026-04-26 18:37 | 55.95537 | -3.35729 | 304 ft | 173 kts | 58° |
| 2026-04-26 18:37 | 55.96184 | -3.33846 | 907 ft | 185 kts | 58° |
| 2026-04-26 18:37 | 55.96901 | -3.31873 | 1426 ft | 204 kts | 50° |
| 2026-04-26 18:38 | 55.98032 | -3.30308 | 2005 ft | 210 kts | 21° |
| 2026-04-26 18:38 | 55.99497 | -3.29864 | 2407 ft | 219 kts | 352° |
| 2026-04-26 18:38 | 56.00948 | -3.30781 | 2771 ft | 230 kts | 323° |
| 2026-04-26 18:38 | 56.02010 | -3.32909 | 3295 ft | 233 kts | 296° |
| 2026-04-26 18:39 | 56.02417 | -3.35652 | 3925 ft | 233 kts | 270° |
| 2026-04-26 18:39 | 56.02093 | -3.38474 | 4587 ft | 234 kts | 245° |
| 2026-04-26 18:39 | 56.01341 | -3.41020 | 5206 ft | 235 kts | 251° |
| 2026-04-26 18:39 | 56.01253 | -3.43911 | 5794 ft | 240 kts | 286° |
| 2026-04-26 18:40 | 56.02088 | -3.46453 | 6442 ft | 243 kts | 306° |
| 2026-04-26 18:40 | 56.03070 | -3.48926 | 7009 ft | 247 kts | 298° |
| 2026-04-26 18:40 | 56.03772 | -3.51728 | 7656 ft | 250 kts | 287° |
| 2026-04-26 18:40 | 56.04216 | -3.54806 | 8103 ft | 262 kts | 280° |
| 2026-04-26 18:41 | 56.04534 | -3.58049 | 8676 ft | 269 kts | 278° |
| 2026-04-26 18:41 | 56.04819 | -3.61332 | 9359 ft | 271 kts | 278° |
| 2026-04-26 18:41 | 56.05113 | -3.64682 | 10081 ft | 271 kts | 278° |
| 2026-04-26 18:41 | 56.05414 | -3.68031 | 10619 ft | 279 kts | 277° |
| 2026-04-26 18:42 | 56.05736 | -3.71547 | 10956 ft | 293 kts | 278° |
| 2026-04-26 18:42 | 56.06078 | -3.75224 | 11258 ft | 308 kts | 278° |
| 2026-04-26 18:42 | 56.06436 | -3.79079 | 11582 ft | 322 kts | 278° |
| 2026-04-26 18:42 | 56.06808 | -3.83094 | 11872 ft | 335 kts | 278° |
| 2026-04-26 18:43 | 56.07192 | -3.87272 | 12127 ft | 350 kts | 278° |
| 2026-04-26 18:43 | 56.07597 | -3.91697 | 12386 ft | 364 kts | 278° |
| 2026-04-26 18:43 | 56.08013 | -3.96241 | 12594 ft | 379 kts | 278° |
| 2026-04-26 18:43 | 56.08443 | -4.00958 | 13037 ft | 387 kts | 278° |
| 2026-04-26 18:44 | 56.08875 | -4.05713 | 13665 ft | 389 kts | 278° |
| 2026-04-26 18:44 | 56.09306 | -4.10476 | 14309 ft | 391 kts | 278° |
| 2026-04-26 18:44 | 56.09738 | -4.15273 | 14947 ft | 393 kts | 278° |
| 2026-04-26 18:44 | 56.10171 | -4.20133 | 15520 ft | 396 kts | 278° |
| 2026-04-26 18:45 | 56.10606 | -4.25053 | 16123 ft | 399 kts | 278° |
| 2026-04-26 18:45 | 56.11037 | -4.29947 | 16705 ft | 401 kts | 278° |
| 2026-04-26 18:45 | 56.11467 | -4.34839 | 17243 ft | 404 kts | 278° |
| 2026-04-26 18:45 | 56.11908 | -4.39866 | 17785 ft | 406 kts | 278° |
| 2026-04-26 18:46 | 56.12344 | -4.44827 | 18370 ft | 408 kts | 278° |
| 2026-04-26 18:46 | 56.12784 | -4.49868 | 18896 ft | 411 kts | 278° |
| 2026-04-26 18:46 | 56.13221 | -4.54903 | 19391 ft | 414 kts | 278° |
| 2026-04-26 18:46 | 56.13665 | -4.60049 | 19980 ft | 416 kts | 278° |
| 2026-04-26 18:47 | 56.14104 | -4.65142 | 20491 ft | 418 kts | 277° |
| 2026-04-26 18:47 | 56.14549 | -4.70344 | 20989 ft | 421 kts | 277° |
| 2026-04-26 18:47 | 56.14986 | -4.75490 | 21525 ft | 423 kts | 277° |
| 2026-04-26 18:47 | 56.15426 | -4.80715 | 22019 ft | 425 kts | 277° |
| 2026-04-26 18:48 | 56.15866 | -4.85951 | 22495 ft | 428 kts | 277° |
| 2026-04-26 18:48 | 56.16311 | -4.91289 | 22981 ft | 430 kts | 277° |
| 2026-04-26 18:48 | 56.16750 | -4.96586 | 23386 ft | 434 kts | 277° |
| 2026-04-26 18:48 | 56.17192 | -5.01962 | 23847 ft | 436 kts | 277° |
| 2026-04-26 18:49 | 56.17629 | -5.07303 | 24307 ft | 438 kts | 277° |
| 2026-04-26 18:49 | 56.18072 | -5.12758 | 24766 ft | 440 kts | 277° |
| 2026-04-26 18:49 | 56.18512 | -5.18216 | 25332 ft | 439 kts | 277° |
| 2026-04-26 18:49 | 56.18941 | -5.23582 | 26089 ft | 433 kts | 277° |
| 2026-04-26 18:50 | 56.19365 | -5.28899 | 26691 ft | 431 kts | 277° |
| 2026-04-26 18:50 | 56.19786 | -5.34204 | 27161 ft | 431 kts | 277° |
| 2026-04-26 18:50 | 56.20201 | -5.39455 | 27662 ft | 429 kts | 277° |
| 2026-04-26 18:50 | 56.20618 | -5.44758 | 28155 ft | 428 kts | 277° |
| 2026-04-26 18:51 | 56.21032 | -5.50041 | 28596 ft | 427 kts | 277° |
| 2026-04-26 18:51 | 56.21444 | -5.55328 | 29042 ft | 426 kts | 277° |
| 2026-04-26 18:51 | 56.21849 | -5.60564 | 29442 ft | 425 kts | 277° |
| 2026-04-26 18:51 | 56.22256 | -5.65835 | 29838 ft | 425 kts | 276° |
| 2026-04-26 18:52 | 56.22654 | -5.71043 | 30259 ft | 423 kts | 276° |
| 2026-04-26 18:52 | 56.23062 | -5.76350 | 30725 ft | 420 kts | 276° |
| 2026-04-26 18:52 | 56.23533 | -5.81549 | 31039 ft | 421 kts | 279° |
| 2026-04-26 18:52 | 56.24225 | -5.86664 | 31366 ft | 421 kts | 284° |
| 2026-04-26 18:53 | 56.25100 | -5.91716 | 31626 ft | 422 kts | 286° |
| 2026-04-26 18:53 | 56.26049 | -5.96666 | 31901 ft | 421 kts | 287° |
| 2026-04-26 18:53 | 56.27067 | -6.01659 | 32214 ft | 420 kts | 288° |
| 2026-04-26 18:53 | 56.28093 | -6.06574 | 32506 ft | 419 kts | 288° |
| 2026-04-26 18:54 | 56.29122 | -6.11498 | 32764 ft | 418 kts | 288° |
| 2026-04-26 18:54 | 56.30136 | -6.16393 | 33005 ft | 418 kts | 288° |
| 2026-04-26 18:54 | 56.31147 | -6.21328 | 33219 ft | 418 kts | 288° |
| 2026-04-26 18:54 | 56.32159 | -6.26314 | 33465 ft | 417 kts | 288° |
| 2026-04-26 18:55 | 56.33147 | -6.31210 | 33706 ft | 416 kts | 288° |
| 2026-04-26 18:55 | 56.34129 | -6.36107 | 33882 ft | 416 kts | 288° |
| 2026-04-26 18:55 | 56.35100 | -6.40978 | 34065 ft | 416 kts | 288° |
| 2026-04-26 18:55 | 56.36075 | -6.45892 | 34244 ft | 415 kts | 288° |
| 2026-04-26 18:56 | 56.38026 | -6.55762 | 34275 ft | 417 kts | 288° |
| 2026-04-26 18:56 | 56.39971 | -6.65661 | 34259 ft | 414 kts | 287° |
| 2026-04-26 18:57 | 56.41563 | -6.73814 | 34264 ft | 416 kts | 287° |
| 2026-04-26 18:57 | 56.43800 | -6.85317 | 34255 ft | 415 kts | 287° |
| 2026-04-26 18:58 | 56.45717 | -6.95211 | 34256 ft | 415 kts | 287° |
| 2026-04-26 18:58 | 56.47606 | -7.05017 | 34251 ft | 414 kts | 287° |
| 2026-04-26 18:59 | 56.49486 | -7.14832 | 34248 ft | 414 kts | 287° |
| 2026-04-26 18:59 | 56.51366 | -7.24704 | 34253 ft | 414 kts | 287° |
| 2026-04-26 19:00 | 56.53228 | -7.34525 | 34247 ft | 414 kts | 288° |
| 2026-04-26 19:00 | 56.55078 | -7.44332 | 34248 ft | 413 kts | 288° |
| 2026-04-26 19:01 | 56.56930 | -7.54205 | 34243 ft | 413 kts | 288° |
| 2026-04-26 19:01 | 56.58776 | -7.64089 | 34242 ft | 414 kts | 288° |
| 2026-04-26 19:02 | 56.60604 | -7.73930 | 34246 ft | 413 kts | 287° |
| 2026-04-26 19:02 | 56.62125 | -7.82174 | 34253 ft | 414 kts | 287° |
| 2026-04-26 19:03 | 56.64248 | -7.93723 | 34243 ft | 413 kts | 287° |
| 2026-04-26 19:03 | 56.66059 | -8.03629 | 34244 ft | 412 kts | 287° |
| 2026-04-26 19:04 | 56.67856 | -8.13511 | 34242 ft | 413 kts | 287° |
| 2026-04-26 19:04 | 56.69648 | -8.23418 | 34238 ft | 413 kts | 287° |
| 2026-04-26 19:05 | 56.72331 | -8.38329 | 34242 ft | 413 kts | 288° |
| 2026-04-26 19:06 | 56.74104 | -8.48261 | 34247 ft | 412 kts | 288° |
| 2026-04-26 19:06 | 56.75863 | -8.58157 | 34244 ft | 412 kts | 288° |
| 2026-04-26 19:07 | 56.77607 | -8.68033 | 34249 ft | 412 kts | 287° |
| 2026-04-26 19:07 | 56.79350 | -8.77978 | 34243 ft | 413 kts | 287° |
| 2026-04-26 19:08 | 56.81093 | -8.87959 | 34240 ft | 413 kts | 287° |
| 2026-04-26 19:08 | 56.82825 | -8.97911 | 34243 ft | 412 kts | 287° |
| 2026-04-26 19:09 | 56.84547 | -9.07891 | 34240 ft | 411 kts | 288° |
| 2026-04-26 19:09 | 56.86256 | -9.17854 | 34233 ft | 410 kts | 288° |
| 2026-04-26 19:10 | 56.87946 | -9.27751 | 34234 ft | 409 kts | 288° |
| 2026-04-26 19:10 | 56.89633 | -9.37677 | 34238 ft | 409 kts | 288° |
| 2026-04-26 19:11 | 56.91310 | -9.47594 | 34232 ft | 408 kts | 288° |
| 2026-04-26 19:11 | 56.92964 | -9.57448 | 34229 ft | 408 kts | 288° |
| 2026-04-26 19:12 | 56.94627 | -9.67402 | 34230 ft | 407 kts | 288° |
| 2026-04-26 19:12 | 56.96276 | -9.77331 | 34217 ft | 406 kts | 288° |
| 2026-04-26 19:13 | 56.97904 | -9.87182 | 34222 ft | 407 kts | 288° |
| 2026-04-26 19:13 | 56.99546 | -9.97101 | 34221 ft | 405 kts | 290° |
| 2026-04-26 19:14 | 57.01615 | -10.06699 | 34217 ft | 404 kts | 294° |
| 2026-04-26 19:14 | 57.03957 | -10.16098 | 34215 ft | 403 kts | 296° |
| 2026-04-26 19:15 | 57.06335 | -10.25393 | 34217 ft | 404 kts | 296° |
| 2026-04-26 19:15 | 57.08703 | -10.34775 | 34213 ft | 403 kts | 296° |
| 2026-04-26 19:16 | 57.11037 | -10.44154 | 34205 ft | 403 kts | 296° |
| 2026-04-26 19:16 | 57.13357 | -10.53531 | 34209 ft | 401 kts | 296° |
| 2026-04-26 19:17 | 57.15648 | -10.62852 | 34210 ft | 403 kts | 296° |
| 2026-04-26 19:17 | 57.17950 | -10.72258 | 34209 ft | 403 kts | 296° |
| 2026-04-26 19:18 | 57.20243 | -10.81659 | 34204 ft | 402 kts | 295° |
| 2026-04-26 19:18 | 57.22530 | -10.91091 | 34206 ft | 402 kts | 295° |
| 2026-04-26 19:19 | 57.24799 | -11.00491 | 34205 ft | 402 kts | 296° |
| 2026-04-26 19:19 | 57.27066 | -11.09909 | 34198 ft | 400 kts | 296° |
| 2026-04-26 19:20 | 57.29341 | -11.19395 | 34204 ft | 401 kts | 296° |
| 2026-04-26 19:20 | 57.31593 | -11.28829 | 34205 ft | 402 kts | 296° |
| 2026-04-26 19:21 | 57.33834 | -11.38256 | 34199 ft | 402 kts | 296° |
| 2026-04-26 19:21 | 57.36056 | -11.47663 | 34206 ft | 401 kts | 296° |
| 2026-04-26 19:22 | 57.38294 | -11.57172 | 34201 ft | 401 kts | 296° |
| 2026-04-26 19:22 | 57.40496 | -11.66579 | 34202 ft | 400 kts | 295° |
| 2026-04-26 19:23 | 57.42696 | -11.76020 | 34203 ft | 400 kts | 296° |
| 2026-04-26 19:23 | 57.44901 | -11.85502 | 34200 ft | 399 kts | 296° |
| 2026-04-26 19:24 | 57.47099 | -11.95000 | 34205 ft | 400 kts | 296° |
| 2026-04-26 19:24 | 57.50361 | -12.09186 | 34203 ft | 400 kts | 296° |
| 2026-04-26 19:25 | 57.52175 | -12.17129 | 34211 ft | 399 kts | 296° |
| 2026-04-26 19:25 | 57.54681 | -12.28144 | 34211 ft | 399 kts | 296° |
| 2026-04-26 19:26 | 57.56844 | -12.37674 | 34213 ft | 397 kts | 296° |
| 2026-04-26 19:26 | 57.58982 | -12.47120 | 34211 ft | 397 kts | 296° |
| 2026-04-26 19:27 | 57.61113 | -12.56577 | 34208 ft | 397 kts | 296° |
| 2026-04-26 19:27 | 57.63237 | -12.66090 | 34209 ft | 396 kts | 295° |
| 2026-04-26 19:28 | 57.65330 | -12.75525 | 34207 ft | 395 kts | 296° |
| 2026-04-26 19:28 | 57.67427 | -12.85000 | 34211 ft | 394 kts | 295° |
| 2026-04-26 19:29 | 57.69509 | -12.94420 | 34209 ft | 393 kts | 295° |
| 2026-04-26 19:29 | 57.71600 | -13.03936 | 34201 ft | 394 kts | 296° |
| 2026-04-26 19:30 | 57.73661 | -13.13369 | 34200 ft | 392 kts | 295° |
| 2026-04-26 19:30 | 57.75379 | -13.21244 | 34204 ft | 394 kts | 296° |
| 2026-04-26 19:31 | 57.77788 | -13.32334 | 34196 ft | 392 kts | 295° |
| 2026-04-26 19:31 | 57.79823 | -13.41788 | 34318 ft | 395 kts | 295° |
| 2026-04-26 19:32 | 57.80850 | -13.46570 | 34606 ft | 393 kts | 296° |
| 2026-04-26 19:32 | 57.81857 | -13.51269 | 34796 ft | 392 kts | 295° |
| 2026-04-26 19:32 | 57.82883 | -13.56054 | 34898 ft | 394 kts | 295° |
| 2026-04-26 19:32 | 57.83902 | -13.60819 | 35036 ft | 393 kts | 295° |
| 2026-04-26 19:33 | 57.84909 | -13.65549 | 35197 ft | 393 kts | 294° |
| 2026-04-26 19:33 | 57.85923 | -13.70328 | 35271 ft | 395 kts | 294° |
| 2026-04-26 19:33 | 57.87944 | -13.79904 | 35491 ft | 396 kts | 294° |
| 2026-04-26 19:34 | 57.88958 | -13.84710 | 35613 ft | 395 kts | 294° |
| 2026-04-26 19:34 | 57.89973 | -13.89530 | 35705 ft | 397 kts | 294° |
| 2026-04-26 19:34 | 57.90979 | -13.94306 | 35818 ft | 397 kts | 293° |
| 2026-04-26 19:34 | 57.91992 | -13.99140 | 35929 ft | 397 kts | 293° |
| 2026-04-26 19:35 | 57.94016 | -14.08836 | 36097 ft | 398 kts | 294° |
| 2026-04-26 19:35 | 57.96028 | -14.18500 | 36171 ft | 399 kts | 294° |
| 2026-04-26 19:36 | 57.97712 | -14.26629 | 36182 ft | 399 kts | 294° |
| 2026-04-26 19:36 | 58.00040 | -14.37950 | 36178 ft | 398 kts | 293° |
| 2026-04-26 19:37 | 58.02037 | -14.47687 | 36177 ft | 397 kts | 294° |
| 2026-04-26 19:37 | 58.04022 | -14.57447 | 36183 ft | 399 kts | 293° |
| 2026-04-26 19:38 | 58.05989 | -14.67163 | 36183 ft | 397 kts | 293° |
| 2026-04-26 19:38 | 58.07966 | -14.76939 | 36171 ft | 397 kts | 292° |
| 2026-04-26 19:39 | 58.09934 | -14.86720 | 36177 ft | 396 kts | 292° |
| 2026-04-26 19:39 | 58.11878 | -14.96456 | 36170 ft | 397 kts | 292° |
| 2026-04-26 19:40 | 58.13806 | -15.06173 | 36171 ft | 397 kts | 292° |
| 2026-04-26 19:40 | 58.15755 | -15.16027 | 36170 ft | 396 kts | 293° |
| 2026-04-26 19:41 | 58.17675 | -15.25770 | 36168 ft | 396 kts | 293° |
| 2026-04-26 19:41 | 58.19268 | -15.33895 | 36170 ft | 395 kts | 292° |
| 2026-04-26 19:42 | 58.21490 | -15.45270 | 36167 ft | 394 kts | 292° |
| 2026-04-26 19:42 | 58.23383 | -15.55016 | 36169 ft | 395 kts | 292° |
| 2026-04-26 19:43 | 58.25280 | -15.64823 | 36178 ft | 394 kts | 292° |
| 2026-04-26 19:43 | 58.27157 | -15.74591 | 36164 ft | 393 kts | 291° |
| 2026-04-26 19:44 | 58.29010 | -15.84303 | 36168 ft | 394 kts | 291° |
| 2026-04-26 19:44 | 58.30868 | -15.94118 | 36166 ft | 393 kts | 291° |
| 2026-04-26 19:45 | 58.32709 | -16.03870 | 36174 ft | 393 kts | 292° |
| 2026-04-26 19:45 | 58.34551 | -16.13623 | 36163 ft | 393 kts | 292° |
| 2026-04-26 19:46 | 58.36413 | -16.23462 | 36163 ft | 391 kts | 291° |
| 2026-04-26 19:46 | 58.38217 | -16.33178 | 36158 ft | 391 kts | 291° |
| 2026-04-26 19:47 | 58.39716 | -16.41310 | 36164 ft | 392 kts | 291° |
| 2026-04-26 19:47 | 58.41833 | -16.52808 | 36164 ft | 392 kts | 291° |
| 2026-04-26 19:48 | 58.43632 | -16.62609 | 36160 ft | 392 kts | 291° |
| 2026-04-26 19:48 | 58.45426 | -16.72413 | 36161 ft | 393 kts | 291° |
| 2026-04-26 19:49 | 58.47216 | -16.82240 | 36163 ft | 391 kts | 291° |
| 2026-04-26 19:49 | 58.48983 | -16.92054 | 36157 ft | 389 kts | 291° |
| 2026-04-26 19:50 | 58.50727 | -17.01805 | 36150 ft | 389 kts | 290° |
| 2026-04-26 19:50 | 58.52484 | -17.11609 | 36162 ft | 389 kts | 290° |
| 2026-04-26 19:51 | 58.54227 | -17.21371 | 36163 ft | 388 kts | 290° |
| 2026-04-26 19:51 | 58.55969 | -17.31213 | 36149 ft | 389 kts | 290° |
| 2026-04-26 19:52 | 58.57689 | -17.41012 | 36145 ft | 388 kts | 290° |
| 2026-04-26 19:52 | 58.59399 | -17.50765 | 36152 ft | 388 kts | 290° |
| 2026-04-26 19:53 | 58.61116 | -17.60579 | 36152 ft | 389 kts | 290° |
| 2026-04-26 19:53 | 58.62825 | -17.70434 | 36148 ft | 389 kts | 290° |
| 2026-04-26 19:54 | 58.64523 | -17.80314 | 36145 ft | 389 kts | 289° |
| 2026-04-26 19:54 | 58.66215 | -17.90175 | 36149 ft | 388 kts | 289° |
| 2026-04-26 19:55 | 58.67889 | -18.00044 | 36148 ft | 390 kts | 289° |
| 2026-04-26 19:55 | 58.69558 | -18.09930 | 36140 ft | 388 kts | 289° |
| 2026-04-26 19:56 | 58.71220 | -18.19803 | 36145 ft | 389 kts | 289° |
| 2026-04-26 19:56 | 58.72877 | -18.29678 | 36144 ft | 388 kts | 289° |
| 2026-04-26 19:57 | 58.74530 | -18.39592 | 36142 ft | 388 kts | 289° |
| 2026-04-26 19:57 | 58.76166 | -18.49450 | 36137 ft | 387 kts | 289° |
| 2026-04-26 19:58 | 58.77798 | -18.59364 | 36127 ft | 387 kts | 289° |
| 2026-04-26 19:58 | 58.79413 | -18.69214 | 36129 ft | 389 kts | 288° |
| 2026-04-26 19:59 | 58.81036 | -18.79172 | 36137 ft | 386 kts | 288° |
| 2026-04-26 19:59 | 58.82632 | -18.89004 | 36128 ft | 386 kts | 287° |
| 2026-04-26 20:00 | 58.84223 | -18.98884 | 36111 ft | 386 kts | 288° |
| 2026-04-26 20:00 | 58.85806 | -19.08749 | 36123 ft | 386 kts | 288° |
| 2026-04-26 20:01 | 58.87391 | -19.18695 | 36126 ft | 388 kts | 287° |
| 2026-04-26 20:01 | 58.88966 | -19.28645 | 36118 ft | 386 kts | 287° |
| 2026-04-26 20:02 | 58.90526 | -19.38559 | 36121 ft | 387 kts | 287° |
| 2026-04-26 20:02 | 58.91820 | -19.46842 | 36121 ft | 387 kts | 288° |
| 2026-04-26 20:03 | 58.93639 | -19.58504 | 36116 ft | 388 kts | 287° |
| 2026-04-26 20:03 | 58.95190 | -19.68517 | 36120 ft | 387 kts | 286° |
| 2026-04-26 20:04 | 58.96733 | -19.78534 | 36116 ft | 389 kts | 285° |
| 2026-04-26 20:04 | 58.98263 | -19.88561 | 36117 ft | 388 kts | 286° |
| 2026-04-26 20:05 | 58.99697 | -19.98649 | 36111 ft | 388 kts | 282° |
| 2026-04-26 20:05 | 59.00432 | -20.09019 | 36108 ft | 389 kts | 275° |
| 2026-04-26 20:06 | 59.00765 | -20.19422 | 36110 ft | 388 kts | 275° |
| 2026-04-26 20:06 | 59.01124 | -20.29805 | 36103 ft | 386 kts | 275° |
| 2026-04-26 20:07 | 59.01497 | -20.40214 | 36094 ft | 388 kts | 275° |
| 2026-04-26 20:07 | 59.01861 | -20.50634 | 36099 ft | 388 kts | 275° |
| 2026-04-26 20:08 | 59.02222 | -20.61061 | 36102 ft | 387 kts | 275° |
| 2026-04-26 20:08 | 59.02571 | -20.71424 | 36092 ft | 387 kts | 275° |
| 2026-04-26 20:09 | 59.02912 | -20.81871 | 36084 ft | 387 kts | 274° |
| 2026-04-26 20:09 | 59.03234 | -20.92285 | 36088 ft | 387 kts | 274° |
| 2026-04-26 20:10 | 59.03554 | -21.02642 | 36083 ft | 385 kts | 274° |
| 2026-04-26 20:10 | 59.03873 | -21.13053 | 36083 ft | 387 kts | 274° |
| 2026-04-26 20:11 | 59.04183 | -21.23437 | 36082 ft | 384 kts | 274° |
| 2026-04-26 20:12 | 59.04617 | -21.38961 | 36078 ft | 386 kts | 274° |
| 2026-04-26 20:12 | 59.04909 | -21.49322 | 36089 ft | 385 kts | 273° |
| 2026-04-26 20:13 | 59.05197 | -21.59723 | 36077 ft | 386 kts | 273° |
| 2026-04-26 20:13 | 59.05462 | -21.70115 | 36083 ft | 386 kts | 272° |
| 2026-04-26 20:14 | 59.05710 | -21.80506 | 36077 ft | 385 kts | 272° |
| 2026-04-26 20:14 | 59.05961 | -21.90869 | 36066 ft | 386 kts | 272° |
| 2026-04-26 20:15 | 59.06205 | -22.01237 | 36067 ft | 386 kts | 272° |
| 2026-04-26 20:15 | 59.06451 | -22.11621 | 36072 ft | 386 kts | 272° |
| 2026-04-26 20:16 | 59.06694 | -22.22010 | 36056 ft | 385 kts | 272° |
| 2026-04-26 20:16 | 59.06907 | -22.32345 | 36049 ft | 383 kts | 271° |
| 2026-04-26 20:17 | 59.07103 | -22.42651 | 36046 ft | 384 kts | 271° |
| 2026-04-26 20:17 | 59.07267 | -22.52988 | 36037 ft | 383 kts | 271° |
| 2026-04-26 20:18 | 59.07471 | -22.63360 | 36028 ft | 383 kts | 271° |
| 2026-04-26 20:18 | 59.07668 | -22.73637 | 36027 ft | 384 kts | 271° |
| 2026-04-26 20:19 | 59.07843 | -22.84008 | 36013 ft | 382 kts | 271° |
| 2026-04-26 20:19 | 59.08012 | -22.94375 | 36019 ft | 384 kts | 271° |
| 2026-04-26 20:20 | 59.08200 | -23.04697 | 36013 ft | 383 kts | 270° |
| 2026-04-26 20:20 | 59.08352 | -23.15025 | 36005 ft | 383 kts | 270° |
| 2026-04-26 20:21 | 59.08492 | -23.25387 | 36001 ft | 383 kts | 271° |
| 2026-04-26 20:21 | 59.08610 | -23.35709 | 36001 ft | 383 kts | 270° |
| 2026-04-26 20:22 | 59.08728 | -23.46009 | 35997 ft | 383 kts | 270° |
| 2026-04-26 20:22 | 59.08850 | -23.56321 | 35991 ft | 382 kts | 271° |
| 2026-04-26 20:23 | 59.08968 | -23.66658 | 35990 ft | 383 kts | 269° |
| 2026-04-26 20:23 | 59.09059 | -23.76907 | 35994 ft | 380 kts | 270° |
| 2026-04-26 20:24 | 59.09142 | -23.87165 | 35987 ft | 380 kts | 270° |
| 2026-04-26 20:24 | 59.09227 | -23.97479 | 35991 ft | 382 kts | 269° |
| 2026-04-26 20:25 | 59.09293 | -24.07779 | 35981 ft | 381 kts | 269° |
| 2026-04-26 20:25 | 59.09361 | -24.18039 | 35976 ft | 381 kts | 269° |
| 2026-04-26 20:26 | 59.09436 | -24.28363 | 35966 ft | 380 kts | 268° |
| 2026-04-26 20:26 | 59.09508 | -24.38639 | 35958 ft | 381 kts | 269° |
| 2026-04-26 20:27 | 59.09561 | -24.48895 | 35953 ft | 381 kts | 268° |
| 2026-04-26 20:27 | 59.09592 | -24.59167 | 35954 ft | 381 kts | 268° |
| 2026-04-26 20:28 | 59.09616 | -24.69426 | 35950 ft | 381 kts | 268° |
| 2026-04-26 20:28 | 59.09636 | -24.79685 | 35951 ft | 379 kts | 267° |
| 2026-04-26 20:29 | 59.09647 | -24.89954 | 35943 ft | 381 kts | 267° |
| 2026-04-26 20:29 | 59.09651 | -25.00198 | 35943 ft | 378 kts | 267° |
| 2026-04-26 20:30 | 59.09649 | -25.10368 | 35944 ft | 379 kts | 266° |
| 2026-04-26 20:30 | 59.09629 | -25.20654 | 35939 ft | 380 kts | 266° |
| 2026-04-26 20:31 | 59.09606 | -25.30878 | 35934 ft | 380 kts | 266° |
| 2026-04-26 20:31 | 59.09578 | -25.41127 | 35927 ft | 382 kts | 266° |
| 2026-04-26 20:32 | 59.09549 | -25.51430 | 35925 ft | 381 kts | 266° |
| 2026-04-26 20:32 | 59.09476 | -25.61694 | 35920 ft | 381 kts | 266° |
| 2026-04-26 20:33 | 59.09417 | -25.71999 | 35912 ft | 382 kts | 266° |
| 2026-04-26 20:33 | 59.09377 | -25.82301 | 35911 ft | 381 kts | 265° |
| 2026-04-26 20:34 | 59.09309 | -25.92588 | 35905 ft | 382 kts | 265° |
| 2026-04-26 20:34 | 59.09228 | -26.02942 | 35903 ft | 382 kts | 265° |
| 2026-04-26 20:35 | 59.09143 | -26.13204 | 35899 ft | 381 kts | 265° |
| 2026-04-26 20:35 | 59.09053 | -26.23530 | 35896 ft | 383 kts | 265° |
| 2026-04-26 20:36 | 59.08954 | -26.33865 | 35893 ft | 382 kts | 265° |
| 2026-04-26 20:36 | 59.08844 | -26.44176 | 35889 ft | 380 kts | 265° |
| 2026-04-26 20:37 | 59.08732 | -26.54422 | 35887 ft | 381 kts | 265° |
| 2026-04-26 20:37 | 59.08622 | -26.64667 | 35884 ft | 382 kts | 264° |
| 2026-04-26 20:38 | 59.08479 | -26.75001 | 35884 ft | 380 kts | 264° |
| 2026-04-26 20:38 | 59.08334 | -26.85235 | 35886 ft | 382 kts | 264° |
| 2026-04-26 20:39 | 59.08197 | -26.95530 | 35879 ft | 381 kts | 264° |
| 2026-04-26 20:39 | 59.08031 | -27.05788 | 35879 ft | 382 kts | 263° |
| 2026-04-26 20:40 | 59.07854 | -27.16076 | 35872 ft | 382 kts | 264° |
| 2026-04-26 20:40 | 59.07683 | -27.26329 | 35872 ft | 380 kts | 263° |
| 2026-04-26 20:41 | 59.07492 | -27.36570 | 35862 ft | 380 kts | 262° |
| 2026-04-26 20:41 | 59.07279 | -27.46771 | 35854 ft | 379 kts | 263° |
| 2026-04-26 20:42 | 59.07060 | -27.57033 | 35853 ft | 382 kts | 262° |
| 2026-04-26 20:42 | 59.06863 | -27.67327 | 35854 ft | 382 kts | 261° |
| 2026-04-26 20:43 | 59.06681 | -27.77575 | 35850 ft | 380 kts | 262° |
| 2026-04-26 20:43 | 59.06458 | -27.87799 | 35841 ft | 380 kts | 261° |
| 2026-04-26 20:44 | 59.06223 | -27.98087 | 35844 ft | 382 kts | 261° |
| 2026-04-26 20:44 | 59.06021 | -28.08336 | 35843 ft | 379 kts | 261° |
| 2026-04-26 20:45 | 59.05774 | -28.18581 | 35834 ft | 383 kts | 261° |
| 2026-04-26 20:45 | 59.05524 | -28.28801 | 35838 ft | 379 kts | 261° |
| 2026-04-26 20:46 | 59.05233 | -28.39074 | 35837 ft | 384 kts | 261° |
| 2026-04-26 20:46 | 59.04940 | -28.49388 | 35833 ft | 380 kts | 261° |
| 2026-04-26 20:47 | 59.04660 | -28.59638 | 35825 ft | 381 kts | 261° |
| 2026-04-26 20:47 | 59.04385 | -28.69898 | 35815 ft | 381 kts | 259° |
| 2026-04-26 20:48 | 59.04085 | -28.80231 | 35813 ft | 384 kts | 261° |
| 2026-04-26 20:48 | 59.03784 | -28.90506 | 35809 ft | 381 kts | 260° |
| 2026-04-26 20:49 | 59.03469 | -29.00776 | 35801 ft | 382 kts | 260° |
| 2026-04-26 20:49 | 59.03139 | -29.11052 | 35797 ft | 382 kts | 259° |
| 2026-04-26 20:50 | 59.02803 | -29.21305 | 35790 ft | 383 kts | 260° |
| 2026-04-26 20:50 | 59.02472 | -29.31647 | 35791 ft | 382 kts | 261° |
| 2026-04-26 20:51 | 59.02139 | -29.41922 | 35783 ft | 384 kts | 259° |
| 2026-04-26 20:51 | 59.01792 | -29.52188 | 35783 ft | 382 kts | 260° |
| 2026-04-26 20:52 | 59.01425 | -29.62461 | 35788 ft | 384 kts | 259° |
| 2026-04-26 20:52 | 59.01033 | -29.72790 | 35774 ft | 380 kts | 259° |
| 2026-04-26 20:53 | 59.00657 | -29.83008 | 35781 ft | 382 kts | 259° |
| 2026-04-26 20:53 | 59.00264 | -29.93256 | 35782 ft | 381 kts | 259° |
| 2026-04-26 20:54 | 58.99853 | -30.03414 | 35772 ft | 378 kts | 258° |
| 2026-04-26 20:54 | 58.99275 | -30.13510 | 35777 ft | 380 kts | 257° |
| 2026-04-26 20:55 | 58.98619 | -30.23677 | 35787 ft | 379 kts | 257° |
| 2026-04-26 20:55 | 58.97974 | -30.33752 | 35788 ft | 377 kts | 256° |
| 2026-04-26 20:56 | 58.97340 | -30.43806 | 35790 ft | 379 kts | 257° |
| 2026-04-26 20:56 | 58.96715 | -30.53887 | 35783 ft | 378 kts | 256° |
| 2026-04-26 20:57 | 58.96089 | -30.63946 | 35786 ft | 376 kts | 257° |
| 2026-04-26 20:57 | 58.95440 | -30.73988 | 35776 ft | 377 kts | 255° |
| 2026-04-26 20:58 | 58.94775 | -30.84092 | 35769 ft | 379 kts | 255° |
| 2026-04-26 20:58 | 58.94112 | -30.94216 | 35753 ft | 377 kts | 256° |
| 2026-04-26 20:59 | 58.93436 | -31.04297 | 35745 ft | 378 kts | 256° |
| 2026-04-26 20:59 | 58.92748 | -31.14363 | 35733 ft | 380 kts | 256° |
| 2026-04-26 21:00 | 58.92052 | -31.24470 | 35736 ft | 379 kts | 256° |
| 2026-04-26 21:00 | 58.91335 | -31.34615 | 35737 ft | 383 kts | 255° |
| 2026-04-26 21:01 | 58.90611 | -31.44838 | 35739 ft | 385 kts | 256° |
| 2026-04-26 21:01 | 58.89889 | -31.55070 | 35742 ft | 385 kts | 255° |
| 2026-04-26 21:02 | 58.89158 | -31.65262 | 35712 ft | 385 kts | 254° |
| 2026-04-26 21:02 | 58.88412 | -31.75497 | 35759 ft | 386 kts | 255° |
| 2026-04-26 21:03 | 58.87660 | -31.85801 | 35744 ft | 387 kts | 254° |
| 2026-04-26 21:03 | 58.86902 | -31.96020 | 35734 ft | 384 kts | 255° |
| 2026-04-26 21:04 | 58.86135 | -32.06296 | 35734 ft | 387 kts | 254° |
| 2026-04-26 21:04 | 58.85747 | -32.11446 | 36002 ft | 390 kts | 254° |
| 2026-04-26 21:04 | 58.85354 | -32.16626 | 35824 ft | 388 kts | 255° |
| 2026-04-26 21:05 | 58.84597 | -32.26715 | 35787 ft | 382 kts | 254° |
| 2026-04-26 21:05 | 58.83794 | -32.36900 | 35735 ft | 384 kts | 254° |
| 2026-04-26 21:06 | 58.82986 | -32.47163 | 35712 ft | 388 kts | 254° |
| 2026-04-26 21:06 | 58.82170 | -32.57346 | 35724 ft | 388 kts | 254° |
| 2026-04-26 21:07 | 58.81343 | -32.67631 | 35710 ft | 388 kts | 253° |
| 2026-04-26 21:07 | 58.80525 | -32.77894 | 35691 ft | 389 kts | 253° |
| 2026-04-26 21:08 | 58.79678 | -32.88182 | 35705 ft | 388 kts | 253° |
| 2026-04-26 21:08 | 58.78823 | -32.98421 | 35717 ft | 387 kts | 253° |
| 2026-04-26 21:09 | 58.77973 | -33.08712 | 35683 ft | 391 kts | 253° |
| 2026-04-26 21:09 | 58.77106 | -33.19057 | 35695 ft | 393 kts | 253° |
| 2026-04-26 21:10 | 58.76226 | -33.29425 | 35664 ft | 393 kts | 253° |
| 2026-04-26 21:10 | 58.75331 | -33.39783 | 35684 ft | 396 kts | 253° |
| 2026-04-26 21:11 | 58.74414 | -33.50273 | 35687 ft | 399 kts | 254° |
| 2026-04-26 21:11 | 58.73495 | -33.60794 | 35677 ft | 397 kts | 253° |
| 2026-04-26 21:12 | 58.72583 | -33.71231 | 35673 ft | 399 kts | 253° |
| 2026-04-26 21:12 | 58.71637 | -33.81784 | 35645 ft | 400 kts | 253° |
| 2026-04-26 21:13 | 58.70685 | -33.92285 | 35647 ft | 402 kts | 253° |
| 2026-04-26 21:13 | 58.69710 | -34.02945 | 35655 ft | 406 kts | 253° |
| 2026-04-26 21:14 | 58.68733 | -34.13575 | 35651 ft | 403 kts | 253° |
| 2026-04-26 21:14 | 58.67738 | -34.24155 | 35645 ft | 406 kts | 254° |
| 2026-04-26 21:15 | 58.66735 | -34.34872 | 35637 ft | 407 kts | 254° |
| 2026-04-26 21:15 | 58.65735 | -34.45568 | 35654 ft | 410 kts | 253° |
| 2026-04-26 21:16 | 58.64711 | -34.56340 | 35632 ft | 410 kts | 254° |
| 2026-04-26 21:16 | 58.63675 | -34.67090 | 35636 ft | 411 kts | 253° |